Time;durP1;ratioP1;P1;durP2;ratioP2;P2;SDS_P1;SDS_P2;PMS_P1;PMS_P2;Temp;Humidity;BMP_temperature;BMP_pressure;BME280_temperature;BME280_humidity;BME280_pressure;Samples;Min_cycle;Max_cycle;Signal;HPM_P1;HPM_P2
2024/03/23 00:00:13;;;;;;;28.48;19.55;;;;;22.30;99916.00;;;;2052557;28;20214;-69
2024/03/23 00:01:15;;;;;;;26.95;18.60;;;;;22.30;99916.00;;;;2052635;28;20226;-69
2024/03/23 00:02:16;;;;;;;28.67;19.40;;;;;22.30;99916.00;;;;2052072;28;20233;-69
2024/03/23 00:03:18;;;;;;;29.10;18.17;;;;;22.30;99912.00;;;;2042802;28;20199;-69
2024/03/23 00:04:19;;;;;;;27.70;18.30;;;;;22.30;99912.00;;;;2059865;28;20210;-69
2024/03/23 00:05:20;;;;;;;30.25;19.10;;;;;22.20;99910.00;;;;2059356;28;20207;-69
2024/03/23 00:06:22;;;;;;;25.20;17.15;;;;;22.20;99909.00;;;;2051334;28;20742;-69
2024/03/23 00:07:23;;;;;;;26.17;17.75;;;;;22.30;99908.00;;;;2047725;28;20216;-69
2024/03/23 00:08:24;;;;;;;32.17;17.83;;;;;22.20;99905.00;;;;2038759;28;20222;-69
2024/03/23 00:09:26;;;;;;;28.42;17.30;;;;;22.20;99902.00;;;;2048522;28;20205;-69
2024/03/23 00:10:27;;;;;;;29.92;18.60;;;;;22.20;99911.00;;;;2047209;28;20561;-69
2024/03/23 00:11:28;;;;;;;33.20;18.77;;;;;22.20;99910.00;;;;2049398;28;20220;-69
2024/03/23 00:12:30;;;;;;;25.02;17.90;;;;;22.20;99909.00;;;;2047960;28;20224;-69
2024/03/23 00:13:31;;;;;;;27.55;18.10;;;;;22.20;99912.00;;;;2043014;28;20352;-69
2024/03/23 00:14:33;;;;;;;28.02;18.27;;;;;22.20;99910.00;;;;2055804;28;20220;-69
2024/03/23 00:15:34;;;;;;;24.92;17.00;;;;;22.20;99916.00;;;;2051232;28;20686;-69
2024/03/23 00:16:36;;;;;;;28.55;16.63;;;;;22.20;99916.00;;;;2052433;28;20215;-69
2024/03/23 00:17:37;;;;;;;23.33;16.00;;;;;22.20;99910.00;;;;2047044;28;20687;-69
2024/03/23 00:18:38;;;;;;;26.17;16.30;;;;;22.20;99899.00;;;;2037422;28;20691;-69
2024/03/23 00:19:42;;;;;;;24.50;16.70;;;;;22.20;99897.00;;;;2048682;28;20230;-69
2024/03/23 00:20:43;;;;;;;24.58;16.92;;;;;22.20;99898.00;;;;2051722;28;20265;-69
2024/03/23 00:21:44;;;;;;;24.63;17.30;;;;;22.10;99907.00;;;;2052918;28;20226;-69
2024/03/23 00:22:45;;;;;;;25.70;15.70;;;;;22.20;99897.00;;;;2049333;28;20584;-69
2024/03/23 00:23:47;;;;;;;26.00;16.58;;;;;22.20;99902.00;;;;2037562;28;20714;-69
2024/03/23 00:24:48;;;;;;;26.23;16.60;;;;;22.20;99899.00;;;;2050527;28;20230;-69
2024/03/23 00:25:49;;;;;;;22.50;14.63;;;;;22.20;99895.00;;;;2054451;28;20222;-69
2024/03/23 00:26:51;;;;;;;28.38;15.35;;;;;22.20;99897.00;;;;2054424;28;20231;-69
2024/03/23 00:27:52;;;;;;;24.52;15.43;;;;;22.20;99888.00;;;;2052695;28;20642;-69
2024/03/23 00:28:54;;;;;;;22.73;14.80;;;;;22.10;99888.00;;;;2037502;28;20561;-69
2024/03/23 00:29:55;;;;;;;22.50;16.02;;;;;22.10;99887.00;;;;2051720;28;20223;-69
2024/03/23 00:30:57;;;;;;;21.50;14.75;;;;;22.10;99890.00;;;;2053859;28;20226;-69
2024/03/23 00:31:58;;;;;;;23.77;15.27;;;;;22.10;99891.00;;;;2053118;28;20227;-69
2024/03/23 00:32:59;;;;;;;20.98;14.10;;;;;22.10;99897.00;;;;2052915;28;20591;-69
2024/03/23 00:34:00;;;;;;;27.15;15.18;;;;;22.10;99865.00;;;;2044045;28;20603;-69
2024/03/23 00:35:02;;;;;;;20.90;14.00;;;;;22.10;99893.00;;;;2052603;28;20555;-69
2024/03/23 00:36:03;;;;;;;23.58;14.57;;;;;22.10;99893.00;;;;2053854;28;20657;-69
2024/03/23 00:37:05;;;;;;;25.52;15.10;;;;;22.10;99895.00;;;;2051631;28;20219;-69
2024/03/23 00:38:07;;;;;;;19.92;14.90;;;;;22.10;99894.00;;;;2043504;28;20216;-69
2024/03/23 00:39:08;;;;;;;19.48;14.25;;;;;22.10;99886.00;;;;2038546;28;20636;-69
2024/03/23 00:40:10;;;;;;;21.92;14.00;;;;;22.10;99890.00;;;;2061509;28;20223;-69
2024/03/23 00:41:11;;;;;;;20.02;12.95;;;;;21.90;99885.00;;;;2052318;28;20219;-69
2024/03/23 00:42:12;;;;;;;22.20;14.25;;;;;22.10;99874.00;;;;2051526;28;20221;-69
2024/03/23 00:43:14;;;;;;;19.95;14.13;;;;;22.10;99884.00;;;;2042625;28;20215;-69
2024/03/23 00:44:15;;;;;;;20.45;13.70;;;;;22.10;99874.00;;;;2047127;28;20215;-69
2024/03/23 00:45:16;;;;;;;19.98;14.60;;;;;22.10;99881.00;;;;2046303;28;20212;-69
2024/03/23 00:46:18;;;;;;;24.10;14.95;;;;;22.10;99878.00;;;;2052522;28;20216;-69
2024/03/23 00:47:19;;;;;;;19.48;13.18;;;;;22.10;99876.00;;;;2053727;28;20246;-69
2024/03/23 00:48:21;;;;;;;17.98;12.32;;;;;22.10;99880.00;;;;2037313;28;20223;-69
2024/03/23 00:49:22;;;;;;;20.60;12.80;;;;;22.10;99875.00;;;;2049258;28;20219;-69
2024/03/23 00:50:24;;;;;;;20.70;12.25;;;;;22.10;99877.00;;;;2048111;28;20228;-69
2024/03/23 00:51:25;;;;;;;19.13;12.38;;;;;22.00;99880.00;;;;2055510;28;20211;-69
2024/03/23 00:52:26;;;;;;;21.83;12.43;;;;;22.10;99872.00;;;;2049959;28;20209;-69
2024/03/23 00:53:28;;;;;;;16.77;12.10;;;;;22.10;99881.00;;;;2040646;28;20219;-69
2024/03/23 00:54:28;;;;;;;20.40;13.18;;;;;22.10;99885.00;;;;2049580;28;20212;-69
2024/03/23 00:55:28;;;;;;;18.37;11.67;;;;;22.00;99885.00;;;;2050344;28;20230;-69
2024/03/23 00:56:29;;;;;;;21.77;13.50;;;;;22.00;99873.00;;;;2053281;28;20231;-69
2024/03/23 00:57:29;;;;;;;17.57;11.27;;;;;22.10;99876.00;;;;2049759;28;20278;-69
2024/03/23 00:58:30;;;;;;;22.50;12.30;;;;;22.10;99869.00;;;;2041532;28;20646;-69
2024/03/23 00:59:30;;;;;;;18.43;11.90;;;;;22.00;99876.00;;;;2049279;28;20659;-69
2024/03/23 01:00:31;;;;;;;18.27;11.47;;;;;22.00;99877.00;;;;2051100;28;20282;-69
2024/03/23 01:01:31;;;;;;;20.37;12.60;;;;;22.00;99870.00;;;;2048581;28;20471;-69
2024/03/23 01:02:32;;;;;;;17.07;11.50;;;;;22.10;99865.00;;;;2049053;28;20275;-69
2024/03/23 01:03:33;;;;;;;17.88;11.95;;;;;22.00;99861.00;;;;2038550;28;20215;-69
2024/03/23 01:04:33;;;;;;;16.57;11.10;;;;;22.00;99869.00;;;;2052097;28;20291;-69
2024/03/23 01:05:33;;;;;;;19.50;11.83;;;;;22.00;99857.00;;;;2051272;28;20230;-69
2024/03/23 01:06:34;;;;;;;17.93;11.23;;;;;22.00;99860.00;;;;2049992;28;20212;-69
2024/03/23 01:07:34;;;;;;;17.70;11.33;;;;;22.00;99861.00;;;;2048674;28;20244;-69
2024/03/23 01:08:34;;;;;;;16.10;10.00;;;;;22.00;99862.00;;;;2042890;28;20270;-69
2024/03/23 01:09:35;;;;;;;18.77;10.47;;;;;22.00;99851.00;;;;2048799;28;20220;-69
2024/03/23 01:10:35;;;;;;;19.43;12.33;;;;;22.00;99867.00;;;;2053085;28;20215;-69
2024/03/23 01:11:35;;;;;;;16.97;11.30;;;;;22.00;99864.00;;;;2050805;28;20216;-69
2024/03/23 01:12:36;;;;;;;15.47;10.37;;;;;22.00;99867.00;;;;2048859;28;20220;-69
2024/03/23 01:13:36;;;;;;;17.00;9.90;;;;;22.00;99868.00;;;;2044769;28;20227;-69
2024/03/23 01:14:36;;;;;;;14.87;9.90;;;;;22.00;99859.00;;;;2054099;28;20211;-69
2024/03/23 01:15:37;;;;;;;16.80;11.13;;;;;21.90;99847.00;;;;2047946;28;20216;-69
2024/03/23 01:16:37;;;;;;;15.13;10.47;;;;;22.00;99868.00;;;;2051787;28;20210;-69
2024/03/23 01:17:38;;;;;;;17.50;10.97;;;;;22.00;99861.00;;;;2052418;28;20630;-69
2024/03/23 01:18:38;;;;;;;15.60;9.63;;;;;22.00;99853.00;;;;2043262;28;20218;-69
2024/03/23 01:19:39;;;;;;;14.50;9.93;;;;;22.00;99851.00;;;;2050211;28;20207;-69
2024/03/23 01:20:39;;;;;;;16.33;9.60;;;;;22.00;99863.00;;;;2054725;28;20207;-69
2024/03/23 01:21:40;;;;;;;17.10;9.33;;;;;22.00;99857.00;;;;2048222;28;20459;-69
2024/03/23 01:22:40;;;;;;;15.60;10.80;;;;;22.00;99869.00;;;;2052300;28;20306;-75
2024/03/23 01:23:42;;;;;;;15.73;9.40;;;;;22.00;99862.00;;;;2038181;28;20227;-69
2024/03/23 01:24:42;;;;;;;15.27;9.60;;;;;22.00;99857.00;;;;2050408;28;20216;-69
2024/03/23 01:25:42;;;;;;;16.57;9.13;;;;;22.00;99846.00;;;;2054292;28;20230;-69
2024/03/23 01:26:43;;;;;;;15.30;9.83;;;;;22.00;99841.00;;;;2048757;28;20208;-69
2024/03/23 01:27:43;;;;;;;14.77;9.20;;;;;22.00;99838.00;;;;2051403;28;20231;-69
2024/03/23 01:28:43;;;;;;;14.03;8.77;;;;;22.00;99839.00;;;;2038493;28;20212;-69
2024/03/23 01:29:44;;;;;;;15.73;9.80;;;;;22.00;99842.00;;;;2052689;28;20204;-69
2024/03/23 01:30:44;;;;;;;16.60;10.53;;;;;21.90;99846.00;;;;2049377;28;20208;-69
2024/03/23 01:31:45;;;;;;;13.60;9.00;;;;;21.90;99831.00;;;;2051164;28;20327;-69
2024/03/23 01:32:46;;;;;;;14.18;10.00;;;;;22.00;99828.00;;;;2050594;28;20227;-69
2024/03/23 01:33:47;;;;;;;13.15;9.15;;;;;21.90;99831.00;;;;2036596;28;20227;-69
2024/03/23 01:34:47;;;;;;;14.40;8.80;;;;;21.90;99834.00;;;;2059500;28;20234;-69
2024/03/23 01:35:47;;;;;;;14.10;9.67;;;;;22.00;99826.00;;;;2056590;28;20207;-69
2024/03/23 01:36:48;;;;;;;15.00;9.17;;;;;22.00;99802.00;;;;2052643;28;20231;-69
2024/03/23 01:37:48;;;;;;;15.20;10.13;;;;;21.90;99841.00;;;;2052653;28;20230;-69
2024/03/23 01:38:49;;;;;;;14.60;8.67;;;;;21.90;99833.00;;;;2038591;28;20881;-69
2024/03/23 01:39:49;;;;;;;13.53;8.63;;;;;21.90;99835.00;;;;2045752;28;20216;-69
2024/03/23 01:40:49;;;;;;;13.20;8.53;;;;;21.90;99835.00;;;;2049275;28;20243;-69
2024/03/23 01:41:50;;;;;;;12.03;8.03;;;;;21.90;99841.00;;;;2043675;28;20238;-69
2024/03/23 01:42:56;;;;;;;14.03;9.20;;;;;21.90;99838.00;;;;2052941;28;20204;-69
2024/03/23 01:43:57;;;;;;;15.60;7.82;;;;;21.90;99837.00;;;;2048212;28;20215;-69
2024/03/23 01:44:57;;;;;;;12.03;8.17;;;;;21.90;99848.00;;;;2046203;28;20213;-69
2024/03/23 01:45:57;;;;;;;12.80;8.50;;;;;21.90;99849.00;;;;2051492;28;20204;-69
2024/03/23 01:46:57;;;;;;;13.43;8.23;;;;;21.90;99858.00;;;;2047511;28;20225;-69
2024/03/23 01:47:58;;;;;;;12.00;8.30;;;;;21.90;99754.00;;;;2046659;28;20205;-68
2024/03/23 01:48:59;;;;;;;12.23;7.90;;;;;21.90;99836.00;;;;2035714;28;20228;-68
2024/03/23 01:49:59;;;;;;;12.23;7.60;;;;;21.90;99844.00;;;;2037401;29;20221;-69
2024/03/23 01:50:59;;;;;;;13.80;8.23;;;;;21.90;99837.00;;;;2052984;28;20199;-69
2024/03/23 01:52:00;;;;;;;11.10;7.17;;;;;21.90;99835.00;;;;2053307;28;20617;-69
2024/03/23 01:53:05;;;;;;;11.90;7.30;;;;;21.90;99717.00;;;;2044916;28;20778;-69
2024/03/23 01:54:06;;;;;;;11.50;7.38;;;;;21.90;99809.00;;;;2027893;29;20239;-69
2024/03/23 01:55:07;;;;;;;12.43;7.87;;;;;21.90;99813.00;;;;2043068;28;20572;-69
2024/03/23 01:56:07;;;;;;;15.30;8.15;;;;;21.90;99696.00;;;;2054187;28;20451;-69
2024/03/23 01:57:07;;;;;;;9.10;6.80;;;;;21.90;99791.00;;;;2053668;28;20695;-69
2024/03/23 01:58:07;;;;;;;13.73;7.63;;;;;21.90;99797.00;;;;2044941;28;20770;-69
2024/03/23 01:59:08;;;;;;;15.23;8.20;;;;;21.90;99806.00;;;;2042170;28;20208;-69
2024/03/23 02:00:12;;;;;;;10.50;6.70;;;;;21.80;99806.00;;;;2055011;28;20256;-68
2024/03/23 02:01:12;;;;;;;13.48;7.70;;;;;21.90;99820.00;;;;2050878;28;20270;-69
2024/03/23 02:02:12;;;;;;;10.67;6.63;;;;;21.90;99819.00;;;;2050173;28;20212;-69
2024/03/23 02:03:25;;;;;;;9.50;6.20;;;;;21.90;99813.00;;;;2042812;28;20215;-69
2024/03/23 02:04:26;;;;;;;11.73;7.50;;;;;21.90;99819.00;;;;2053898;28;20199;-69
2024/03/23 02:05:26;;;;;;;11.00;6.90;;;;;21.90;99807.00;;;;2044611;28;20731;-69
2024/03/23 02:06:26;;;;;;;9.43;6.40;;;;;21.90;99811.00;;;;2045452;28;20843;-69
2024/03/23 02:07:27;;;;;;;12.13;7.13;;;;;21.90;99809.00;;;;2050802;28;20764;-69
2024/03/23 02:08:27;;;;;;;11.90;6.63;;;;;21.90;99801.00;;;;2035571;28;20204;-69
2024/03/23 02:09:28;;;;;;;11.70;6.70;;;;;21.90;99806.00;;;;2037489;29;20201;-69
2024/03/23 02:10:28;;;;;;;11.47;6.33;;;;;21.90;99790.00;;;;2040094;28;20205;-69
2024/03/23 02:11:28;;;;;;;10.87;7.00;;;;;21.90;99788.00;;;;2048809;28;20248;-68
2024/03/23 02:12:29;;;;;;;9.87;6.30;;;;;21.90;99788.00;;;;2053037;28;20795;-68
2024/03/23 02:13:29;;;;;;;11.10;6.13;;;;;21.90;99630.00;;;;2038775;28;20815;-69
2024/03/23 02:14:29;;;;;;;11.67;6.83;;;;;21.80;99786.00;;;;2045837;28;20611;-69
2024/03/23 02:15:30;;;;;;;9.30;5.53;;;;;21.80;99788.00;;;;2049537;28;20660;-69
2024/03/23 02:16:30;;;;;;;10.00;6.43;;;;;21.80;99791.00;;;;2049242;28;20985;-69
2024/03/23 02:17:32;;;;;;;8.80;5.67;;;;;21.80;99786.00;;;;2052569;28;22666;-69
2024/03/23 02:18:33;;;;;;;9.40;5.95;;;;;21.80;99782.00;;;;2038630;28;20223;-69
2024/03/23 02:19:33;;;;;;;9.77;5.77;;;;;21.80;99788.00;;;;2048363;28;20302;-69
2024/03/23 02:20:34;;;;;;;9.43;5.67;;;;;21.80;99789.00;;;;2053788;28;20220;-68
2024/03/23 02:21:34;;;;;;;9.17;5.57;;;;;21.80;99786.00;;;;2053470;28;20254;-69
2024/03/23 02:22:36;;;;;;;10.07;6.30;;;;;21.80;99786.00;;;;2052608;28;20211;-68
2024/03/23 02:23:36;;;;;;;9.52;5.78;;;;;21.80;99791.00;;;;2038099;28;20243;-69
2024/03/23 02:24:37;;;;;;;10.60;5.90;;;;;21.80;99788.00;;;;2049775;28;20271;-69
2024/03/23 02:25:37;;;;;;;9.53;5.10;;;;;21.80;99787.00;;;;2048491;28;20224;-69
2024/03/23 02:26:38;;;;;;;11.10;6.47;;;;;21.80;99762.00;;;;2048889;28;20204;-69
2024/03/23 02:27:40;;;;;;;9.23;5.80;;;;;21.80;99789.00;;;;2049381;28;20450;-69
2024/03/23 02:28:40;;;;;;;11.75;6.20;;;;;21.80;99786.00;;;;2043642;28;20215;-69
2024/03/23 02:29:40;;;;;;;9.00;5.47;;;;;21.80;99784.00;;;;2054520;28;20212;-69
2024/03/23 02:30:41;;;;;;;7.67;5.27;;;;;21.80;99787.00;;;;2055421;28;20222;-69
2024/03/23 02:31:41;;;;;;;8.93;5.27;;;;;21.80;99788.00;;;;2051586;28;20299;-69
2024/03/23 02:32:41;;;;;;;8.03;5.20;;;;;21.80;99807.00;;;;2051143;28;20219;-69
2024/03/23 02:33:42;;;;;;;8.20;5.20;;;;;21.80;99795.00;;;;2042024;28;21636;-69
2024/03/23 02:34:42;;;;;;;10.30;5.57;;;;;21.80;99789.00;;;;2054828;28;20243;-69
2024/03/23 02:35:45;;;;;;;9.63;5.00;;;;;21.80;99794.00;;;;2049642;28;20215;-69
2024/03/23 02:36:46;;;;;;;9.77;5.00;;;;;21.80;99798.00;;;;2052901;28;20206;-69
2024/03/23 02:37:48;;;;;;;8.40;5.30;;;;;21.80;99794.00;;;;2052664;28;20273;-68
2024/03/23 02:38:48;;;;;;;8.80;5.43;;;;;21.80;99797.00;;;;2038700;28;20215;-69
2024/03/23 02:39:48;;;;;;;6.97;4.33;;;;;21.80;99795.00;;;;2046265;28;20434;-69
2024/03/23 02:40:49;;;;;;;7.93;4.90;;;;;21.80;99786.00;;;;2051400;28;20208;-69
2024/03/23 02:41:49;;;;;;;7.67;4.13;;;;;21.80;99789.00;;;;2053228;28;20231;-69
2024/03/23 02:42:50;;;;;;;8.83;5.03;;;;;21.80;99786.00;;;;2053516;28;20204;-69
2024/03/23 02:43:50;;;;;;;7.43;4.80;;;;;21.70;99787.00;;;;2047294;28;20219;-69
2024/03/23 02:44:50;;;;;;;8.97;4.97;;;;;21.70;99788.00;;;;2053869;28;20206;-69
2024/03/23 02:45:51;;;;;;;8.13;5.07;;;;;21.80;99785.00;;;;2054321;28;20227;-69
2024/03/23 02:46:51;;;;;;;7.13;4.23;;;;;21.70;99787.00;;;;2046645;28;20219;-69
2024/03/23 02:47:52;;;;;;;6.30;4.13;;;;;21.80;99787.00;;;;2047432;28;20243;-69
2024/03/23 02:48:52;;;;;;;6.30;4.63;;;;;21.80;99786.00;;;;2040075;28;20223;-69
2024/03/23 02:49:54;;;;;;;9.10;4.60;;;;;21.70;99787.00;;;;2046760;28;20212;-69
2024/03/23 02:50:54;;;;;;;7.20;4.75;;;;;21.70;99785.00;;;;2054823;28;20209;-68
2024/03/23 02:51:54;;;;;;;8.30;4.80;;;;;21.70;99772.00;;;;2061577;28;20218;-69
2024/03/23 02:52:55;;;;;;;7.27;3.73;;;;;21.70;99780.00;;;;2060458;28;20250;-69
2024/03/23 02:53:56;;;;;;;8.83;5.13;;;;;21.70;99772.00;;;;2041205;28;20219;-69
2024/03/23 02:54:56;;;;;;;8.60;5.17;;;;;21.70;99780.00;;;;2053781;28;20282;-69
2024/03/23 02:55:58;;;;;;;6.50;4.40;;;;;21.70;99768.00;;;;2052904;28;20707;-69
2024/03/23 02:56:58;;;;;;;8.55;4.15;;;;;21.70;99791.00;;;;2048974;28;20261;-69
2024/03/23 02:58:01;;;;;;;6.43;3.67;;;;;21.70;99785.00;;;;2050433;28;20559;-69
2024/03/23 02:59:02;;;;;;;7.40;4.90;;;;;21.70;99795.00;;;;2042727;28;20222;-69
2024/03/23 03:00:03;;;;;;;6.57;4.07;;;;;21.70;99778.00;;;;2047591;28;20687;-69
2024/03/23 03:01:03;;;;;;;7.93;4.65;;;;;21.70;99795.00;;;;2045722;28;20224;-69
2024/03/23 03:02:04;;;;;;;7.50;4.03;;;;;21.70;99791.00;;;;2049747;28;20211;-69
2024/03/23 03:03:05;;;;;;;7.00;3.85;;;;;21.70;99795.00;;;;2049260;28;20219;-69
2024/03/23 03:04:05;;;;;;;7.67;4.27;;;;;21.70;99797.00;;;;2035771;28;20224;-69
2024/03/23 03:05:06;;;;;;;7.10;3.57;;;;;21.70;99787.00;;;;2048302;28;20215;-69
2024/03/23 03:06:06;;;;;;;6.47;3.57;;;;;21.70;99797.00;;;;2046863;28;20270;-69
2024/03/23 03:07:06;;;;;;;6.83;4.60;;;;;21.70;99797.00;;;;2052759;28;20243;-69
2024/03/23 03:08:07;;;;;;;7.60;4.60;;;;;21.70;99797.00;;;;2051952;28;20219;-69
2024/03/23 03:09:08;;;;;;;6.93;3.80;;;;;21.70;99799.00;;;;2035566;28;20224;-69
2024/03/23 03:10:10;;;;;;;7.63;4.17;;;;;21.70;99789.00;;;;2050733;28;20227;-69
2024/03/23 03:11:11;;;;;;;5.70;4.07;;;;;21.70;99785.00;;;;2046232;28;20819;-69
2024/03/23 03:12:11;;;;;;;7.83;4.10;;;;;21.70;99789.00;;;;2050520;28;20227;-69
2024/03/23 03:13:12;;;;;;;6.80;3.93;;;;;21.70;99790.00;;;;2037547;28;20290;-69
2024/03/23 03:14:12;;;;;;;7.20;4.03;;;;;21.70;99789.00;;;;2054375;28;20230;-69
2024/03/23 03:15:12;;;;;;;5.93;3.80;;;;;21.70;99781.00;;;;2045152;28;20809;-69
2024/03/23 03:16:13;;;;;;;6.50;3.30;;;;;21.70;99778.00;;;;2046473;28;20307;-69
2024/03/23 03:17:13;;;;;;;6.33;3.50;;;;;21.70;99779.00;;;;2050868;28;20302;-69
2024/03/23 03:18:13;;;;;;;7.97;4.13;;;;;21.70;99785.00;;;;2041214;28;20223;-69
2024/03/23 03:19:16;;;;;;;8.60;4.10;;;;;21.70;99774.00;;;;2060235;28;20456;-69
2024/03/23 03:20:17;;;;;;;6.57;3.35;;;;;21.70;99776.00;;;;2054857;28;20748;-69
2024/03/23 03:21:19;;;;;;;6.10;3.75;;;;;21.70;99784.00;;;;2049073;28;20219;-69
2024/03/23 03:22:19;;;;;;;6.20;3.30;;;;;21.70;99790.00;;;;2049221;28;20231;-69
2024/03/23 03:23:19;;;;;;;6.63;3.40;;;;;21.70;99779.00;;;;2039747;28;20220;-69
2024/03/23 03:24:20;;;;;;;6.70;3.40;;;;;21.70;99781.00;;;;2050608;28;20208;-69
2024/03/23 03:25:20;;;;;;;4.53;2.80;;;;;21.70;99789.00;;;;2053771;28;20215;-69
2024/03/23 03:26:20;;;;;;;5.90;3.10;;;;;21.70;99788.00;;;;2051983;28;20220;-69
2024/03/23 03:27:22;;;;;;;6.30;3.60;;;;;21.60;99780.00;;;;2050645;28;20212;-69
2024/03/23 03:28:22;;;;;;;6.03;3.13;;;;;21.70;99776.00;;;;2041334;28;20578;-69
2024/03/23 03:29:23;;;;;;;5.20;2.83;;;;;21.60;99778.00;;;;2050655;28;20212;-69
2024/03/23 03:30:23;;;;;;;6.60;3.60;;;;;21.70;99763.00;;;;2044996;28;20827;-69
2024/03/23 03:31:23;;;;;;;6.60;3.57;;;;;21.70;99765.00;;;;2048409;28;20213;-69
2024/03/23 03:32:24;;;;;;;6.17;3.20;;;;;21.70;99758.00;;;;2049114;28;20254;-69
2024/03/23 03:33:24;;;;;;;5.40;3.20;;;;;21.70;99757.00;;;;2041899;28;20223;-69
2024/03/23 03:34:24;;;;;;;6.63;3.00;;;;;21.70;99756.00;;;;2055847;28;20215;-69
2024/03/23 03:35:25;;;;;;;5.50;3.10;;;;;21.70;99760.00;;;;2053807;28;20674;-69
2024/03/23 03:36:25;;;;;;;5.90;3.43;;;;;21.70;99764.00;;;;2053148;28;20746;-69
2024/03/23 03:37:25;;;;;;;4.23;2.60;;;;;21.70;99765.00;;;;2052500;28;20692;-69
2024/03/23 03:38:25;;;;;;;5.70;2.87;;;;;21.70;99770.00;;;;2039671;28;20267;-69
2024/03/23 03:39:26;;;;;;;6.70;3.37;;;;;21.60;99767.00;;;;2048787;28;20208;-69
2024/03/23 03:40:26;;;;;;;6.97;3.67;;;;;21.60;99775.00;;;;2046737;28;20231;-69
2024/03/23 03:41:26;;;;;;;6.40;3.10;;;;;21.70;99781.00;;;;2050329;28;20572;-69
2024/03/23 03:42:27;;;;;;;12.37;3.53;;;;;21.60;99762.00;;;;2046472;28;20774;-69
2024/03/23 03:43:27;;;;;;;5.13;2.83;;;;;21.60;99777.00;;;;2041336;28;20212;-69
2024/03/23 03:44:27;;;;;;;5.83;2.93;;;;;21.60;99782.00;;;;2056893;28;20254;-69
2024/03/23 03:45:28;;;;;;;6.20;3.37;;;;;21.60;99779.00;;;;2055867;28;20721;-69
2024/03/23 03:46:28;;;;;;;5.23;2.60;;;;;21.60;99784.00;;;;2049882;28;20656;-69
2024/03/23 03:47:28;;;;;;;4.07;2.67;;;;;21.60;99790.00;;;;2050430;28;20239;-69
2024/03/23 03:48:29;;;;;;;6.10;2.63;;;;;21.60;99784.00;;;;2043764;28;21576;-69
2024/03/23 03:49:29;;;;;;;5.37;2.80;;;;;21.60;99782.00;;;;2052996;28;20234;-69
2024/03/23 03:50:29;;;;;;;5.57;2.50;;;;;21.60;99785.00;;;;2048347;28;20203;-69
2024/03/23 03:51:30;;;;;;;7.30;2.87;;;;;21.60;99781.00;;;;2053563;28;20211;-69
2024/03/23 03:52:31;;;;;;;4.67;2.90;;;;;21.60;99772.00;;;;2051901;28;20459;-68
2024/03/23 03:53:31;;;;;;;4.83;2.97;;;;;21.60;99771.00;;;;2044456;28;20278;-69
2024/03/23 03:54:33;;;;;;;4.80;2.80;;;;;21.60;99768.00;;;;2059582;28;20306;-69
2024/03/23 03:55:33;;;;;;;6.32;3.65;;;;;21.60;99764.00;;;;2058469;28;20199;-69
2024/03/23 03:56:33;;;;;;;5.27;2.80;;;;;21.60;99759.00;;;;2050138;28;20205;-69
2024/03/23 03:57:34;;;;;;;5.20;2.60;;;;;21.70;99761.00;;;;2045557;28;20224;-69
2024/03/23 03:58:34;;;;;;;5.70;3.30;;;;;21.60;99756.00;;;;2040323;28;20230;-69
2024/03/23 03:59:34;;;;;;;4.40;2.50;;;;;21.60;99759.00;;;;2053263;28;20601;-69
2024/03/23 04:00:35;;;;;;;5.63;2.47;;;;;21.60;99766.00;;;;2057004;28;20246;-69
2024/03/23 04:01:35;;;;;;;5.07;2.70;;;;;21.60;99766.00;;;;2051713;28;20646;-69
2024/03/23 04:02:36;;;;;;;6.60;2.70;;;;;21.60;99761.00;;;;2052221;28;20250;-69
2024/03/23 04:03:36;;;;;;;6.80;2.90;;;;;21.50;99761.00;;;;2043653;28;20239;-69
2024/03/23 04:04:37;;;;;;;4.77;2.83;;;;;21.60;99768.00;;;;2055768;28;20215;-69
2024/03/23 04:05:37;;;;;;;5.90;2.80;;;;;21.60;99763.00;;;;2051552;28;20226;-69
2024/03/23 04:06:38;;;;;;;5.73;2.23;;;;;21.60;99762.00;;;;2049798;28;20223;-68
2024/03/23 04:07:39;;;;;;;5.30;2.67;;;;;21.60;99772.00;;;;2050045;28;20297;-69
2024/03/23 04:08:39;;;;;;;6.40;2.50;;;;;21.60;99769.00;;;;2042028;28;21229;-69
2024/03/23 04:09:39;;;;;;;3.57;2.10;;;;;21.60;99774.00;;;;2061291;28;20717;-69
2024/03/23 04:10:40;;;;;;;6.07;2.73;;;;;21.60;99735.00;;;;2053437;28;20227;-69
2024/03/23 04:11:40;;;;;;;4.50;2.60;;;;;21.60;99773.00;;;;2051415;28;20547;-69
2024/03/23 04:12:43;;;;;;;5.40;2.60;;;;;21.60;99772.00;;;;2054048;28;20238;-69
2024/03/23 04:13:43;;;;;;;4.68;2.40;;;;;21.60;99777.00;;;;2041157;28;20301;-69
2024/03/23 04:14:44;;;;;;;4.63;2.80;;;;;21.60;99773.00;;;;2059678;28;20262;-69
2024/03/23 04:15:44;;;;;;;5.63;2.50;;;;;21.60;99773.00;;;;2052147;28;20259;-69
2024/03/23 04:16:44;;;;;;;5.30;2.73;;;;;21.60;99783.00;;;;2047179;28;20215;-69
2024/03/23 04:17:45;;;;;;;3.97;2.40;;;;;21.60;99773.00;;;;2046916;28;20238;-69
2024/03/23 04:18:47;;;;;;;4.77;2.40;;;;;21.60;99774.00;;;;2044027;28;20243;-69
2024/03/23 04:19:48;;;;;;;4.68;2.60;;;;;21.60;99774.00;;;;2054152;28;20327;-69
2024/03/23 04:20:49;;;;;;;4.75;2.50;;;;;21.60;99775.00;;;;2053946;28;20306;-69
2024/03/23 04:21:49;;;;;;;5.10;2.60;;;;;21.60;99773.00;;;;2049133;28;20228;-69
2024/03/23 04:22:49;;;;;;;5.17;2.17;;;;;21.60;99767.00;;;;2050878;28;20235;-69
2024/03/23 04:23:50;;;;;;;5.17;2.13;;;;;21.60;99778.00;;;;2037597;28;20215;-69
2024/03/23 04:24:50;;;;;;;3.67;2.20;;;;;21.60;99771.00;;;;2052945;28;20243;-69
2024/03/23 04:25:52;;;;;;;5.67;2.17;;;;;21.60;99771.00;;;;2051931;28;20245;-69
2024/03/23 04:26:52;;;;;;;4.28;2.17;;;;;21.60;99770.00;;;;2048166;28;20223;-69
2024/03/23 04:27:52;;;;;;;4.53;2.40;;;;;21.60;99769.00;;;;2050324;28;20231;-69
2024/03/23 04:28:53;;;;;;;5.67;2.50;;;;;21.60;99761.00;;;;2038373;28;20271;-69
2024/03/23 04:29:53;;;;;;;5.80;2.40;;;;;21.50;99760.00;;;;2047121;28;20224;-69
2024/03/23 04:30:54;;;;;;;4.20;2.13;;;;;21.60;99761.00;;;;2052972;28;20258;-69
2024/03/23 04:31:55;;;;;;;6.03;2.33;;;;;21.60;99762.00;;;;2048009;28;20216;-69
2024/03/23 04:32:56;;;;;;;6.00;2.63;;;;;21.50;99760.00;;;;2051727;28;20620;-69
2024/03/23 04:33:57;;;;;;;4.20;2.40;;;;;21.60;99761.00;;;;2043236;28;20478;-69
2024/03/23 04:34:57;;;;;;;4.57;2.13;;;;;21.60;99747.00;;;;2061133;28;20246;-69
2024/03/23 04:35:57;;;;;;;4.07;2.10;;;;;21.60;99752.00;;;;2052935;28;20245;-69
2024/03/23 04:36:58;;;;;;;4.60;2.40;;;;;21.50;99744.00;;;;2047262;28;20235;-69
2024/03/23 04:38:01;;;;;;;5.10;2.10;;;;;21.50;99749.00;;;;2050204;28;20227;-69
2024/03/23 04:39:01;;;;;;;4.63;2.10;;;;;21.50;99742.00;;;;2045067;28;20224;-69
2024/03/23 04:40:03;;;;;;;4.60;2.20;;;;;21.50;99737.00;;;;2047487;28;20211;-69
2024/03/23 04:41:03;;;;;;;4.00;2.03;;;;;21.60;99746.00;;;;2049593;28;20220;-69
2024/03/23 04:42:04;;;;;;;3.90;1.83;;;;;21.60;99743.00;;;;2047665;28;20304;-69
2024/03/23 04:43:04;;;;;;;5.03;2.13;;;;;21.50;99757.00;;;;2054590;28;20216;-69
2024/03/23 04:44:05;;;;;;;3.53;1.60;;;;;21.50;99756.00;;;;2044768;28;20303;-69
2024/03/23 04:45:06;;;;;;;4.80;2.23;;;;;21.50;99753.00;;;;2053112;28;20204;-69
2024/03/23 04:46:07;;;;;;;3.83;2.05;;;;;21.60;99760.00;;;;2053668;28;20234;-69
2024/03/23 04:47:07;;;;;;;4.37;2.10;;;;;21.60;99763.00;;;;2049822;28;20250;-69
2024/03/23 04:48:07;;;;;;;4.70;2.10;;;;;21.50;99753.00;;;;2046047;28;20232;-69
2024/03/23 04:49:08;;;;;;;5.10;2.23;;;;;21.50;99750.00;;;;2041113;28;20721;-69
2024/03/23 04:50:10;;;;;;;5.20;2.40;;;;;21.60;99745.00;;;;2054696;28;20671;-69
2024/03/23 04:51:12;;;;;;;4.30;1.98;;;;;21.50;99750.00;;;;2058850;28;20226;-69
2024/03/23 04:52:12;;;;;;;3.72;2.17;;;;;21.50;99751.00;;;;2052541;28;20231;-69
2024/03/23 04:53:13;;;;;;;5.00;2.07;;;;;21.50;99755.00;;;;2038309;28;20304;-69
2024/03/23 04:54:13;;;;;;;2.80;1.40;;;;;21.50;99755.00;;;;2058865;28;20227;-69
2024/03/23 04:55:14;;;;;;;3.67;1.90;;;;;21.50;99754.00;;;;2056467;28;20234;-69
2024/03/23 04:56:15;;;;;;;5.25;2.08;;;;;21.50;99747.00;;;;2054172;28;20301;-69
2024/03/23 04:57:16;;;;;;;4.65;1.70;;;;;21.50;99757.00;;;;2052954;28;20216;-69
2024/03/23 04:58:17;;;;;;;3.85;2.00;;;;;21.50;99757.00;;;;2038975;28;20307;-69
2024/03/23 04:59:17;;;;;;;4.60;1.93;;;;;21.50;99752.00;;;;2051992;28;20219;-69
2024/03/23 05:00:18;;;;;;;5.27;2.00;;;;;21.50;99748.00;;;;2049546;28;20266;-69
2024/03/23 05:01:19;;;;;;;4.80;2.10;;;;;21.50;99754.00;;;;2048132;28;20227;-69